Latest Weather Observations for Scherger

IDQ60801

Issued at 7:31 am EST Friday 19 December 2014 (issued every 30 minutes, with the page automatically refreshed every 10 minutes)

About weather observations | Map of weather stations | Latest weather observations for QLD | Other Formats
Station Details ID: 027075 Name: SCHERGER RAAF Lat: -12.62 Lon: 142.09 Height: 39.34 m
Data from the previous 72 hours. | See also: Recent months at Scherger
Date/Time
EST
Temp
°C
App
Temp
°C
Dew
Point
Rel
Hum
%
Delta-T
°C
Wind Press
QNH
hPa
Press
MSL
hPa
Rain
since 9 am
mm
Dir
 
Spd
km/h
Gust
km/h
Spd
kts
Gust
kts
19/07:30am 27.7 32.6 24.3 82 2.4 ENE 6 13 3 7 1011.2 1010.9 0.6
19/07:00am 26.5 31.6 24.9 91 1.1 ENE 7 11 4 6 1011.0 1010.7 0.6
19/06:30am 26.0 32.1 25.0 94 0.7 NE 2 9 1 5 1010.6 1010.3 0.6
19/06:00am 25.8 31.4 24.8 94 0.7 NE 4 7 2 4 1010.3 1010.0 0.6
19/05:30am 25.6 31.7 24.4 93 0.8 CALM 0 7 0 4 1009.7 1009.4 0.6
19/05:00am 25.6 31.7 24.4 93 0.8 CALM 0 0 0 0 1009.5 1009.2 0.6
19/04:30am 25.9 32.0 24.5 92 1.0 CALM 0 0 0 0 1009.6 1009.3 0.6
19/04:00am 25.9 31.9 24.3 91 1.1 CALM 0 0 0 0 1009.6 1009.3 0.6
19/03:30am 25.9 32.0 24.5 92 1.0 CALM 0 0 0 0 1009.5 1009.2 0.6
19/03:00am 26.0 32.0 24.2 90 1.2 CALM 0 0 0 0 1009.7 1009.4 0.6
19/02:30am 26.1 31.9 24.0 88 1.4 CALM 0 0 0 0 1009.8 1009.5 0.6
19/02:00am 26.5 32.5 24.2 87 1.6 CALM 0 0 0 0 1010.2 1009.9 0.6
19/01:30am 26.5 32.5 24.2 87 1.6 CALM 0 0 0 0 1010.3 1010.0 0.6
19/01:00am 26.3 32.3 24.3 89 1.4 CALM 0 0 0 0 1010.5 1010.2 0.6
19/12:30am 26.3 32.1 24.0 87 1.6 CALM 0 0 0 0 1010.3 1010.0 0.6
19/12:00am 26.4 32.3 24.1 87 1.6 CALM 0 0 0 0 1010.3 1010.0 0.6
 
Date/Time
EST
Temp
°C
App
Temp
°C
Dew
Point
Rel
Hum
%
Delta-T
°C
Wind Press
QNH
hPa
Press
MSL
hPa
Rain
since 9 am
mm
Dir
 
Spd
km/h
Gust
km/h
Spd
kts
Gust
kts
18/11:30pm 26.7 32.5 24.0 85 1.9 CALM 0 0 0 0 1010.8 1010.5 0.6
18/11:00pm 26.9 32.7 24.0 84 2.0 CALM 0 0 0 0 1010.5 1010.2 0.6
18/10:30pm 27.1 31.7 24.2 84 2.0 NE 7 11 4 6 1010.0 1009.7 0.6
18/10:00pm 27.4 33.3 24.7 85 1.9 NE 2 7 1 4 1010.0 1009.7 0.6
18/09:30pm 27.4 32.5 24.7 85 1.9 E 6 9 3 5 1009.2 1008.9 0.6
18/09:00pm 27.5 33.3 25.1 87 1.7 S 4 9 2 5 1009.1 1008.8 0.6
18/08:30pm 27.3 33.7 24.9 87 1.7 CALM 0 7 0 4 1008.8 1008.5 0.6
18/08:00pm 27.4 33.7 24.8 86 1.8 CALM 0 0 0 0 1008.6 1008.3 0.6
18/07:30pm 27.9 31.8 24.9 84 2.1 N 13 22 7 12 1008.3 1008.0 0.6
18/07:00pm 30.1 35.9 25.2 75 3.5 WNW 4 11 2 6 1008.3 1008.0 0.0
18/06:30pm 30.9 34.2 24.5 68 4.5 W 15 24 8 13 1007.7 1007.4 0.0
18/06:00pm 31.4 34.3 24.5 67 4.8 W 17 32 9 17 1007.2 1006.9 0.0
18/05:30pm 31.9 34.3 24.2 63 5.4 W 19 30 10 16 1006.9 1006.6 0.0
18/05:00pm 32.9 36.3 25.2 64 5.5 WSW 17 28 9 15 1006.6 1006.3 0.0
18/04:30pm 33.1 36.2 24.8 61 5.9 W 17 26 9 14 1006.9 1006.6 0.0
18/04:00pm 33.4 36.5 24.8 60 6.1 W 17 24 9 13 1006.7 1006.4 0.0
18/03:30pm 35.5 38.6 22.1 45 9.2 WSW 9 19 5 10 1006.8 1006.5 0.0
18/03:00pm 35.2 39.3 22.9 49 8.5 NNE 6 9 3 5 1007.1 1006.8 0.0
18/02:30pm 34.3 38.9 21.7 47 8.6 CALM 0 0 0 0 1007.6 1007.3 0.0
18/02:00pm 34.6 39.7 23.3 52 7.9 S 2 13 1 7 1008.0 1007.7 0.0
18/01:30pm 34.0 38.3 23.7 55 7.2 WNW 7 11 4 6 1008.2 1007.9 0.0
18/01:00pm 33.7 38.1 22.8 53 7.5 NW 4 11 2 6 1008.6 1008.3 0.0
18/12:30pm 34.4 39.0 23.1 51 7.8 ESE 4 9 2 5 1009.0 1008.7 0.0
18/12:00pm 33.7 39.0 23.1 54 7.3 CALM 0 6 0 3 1009.5 1009.2 0.0
18/11:30am 33.1 37.5 23.4 56 6.7 SSE 6 13 3 7 1009.9 1009.6 0.0
18/11:00am 32.4 37.3 23.6 59 6.1 W 4 9 2 5 1010.2 1009.9 0.0
18/10:30am 31.5 36.4 23.6 63 5.5 S 4 9 2 5 1010.6 1010.3 0.0
18/10:00am 31.1 35.6 23.7 64 5.1 S 6 9 3 5 1010.7 1010.4 0.0
18/09:30am 30.4 35.3 24.3 70 4.3 NNW 6 9 3 5 1010.7 1010.4 0.0
18/09:00am 30.0 34.9 24.6 73 3.8 NE 7 9 4 5 1010.9 1010.6 13.2
18/08:30am 29.1 33.5 24.4 76 3.3 NNE 9 13 5 7 1010.8 1010.5 13.2
18/08:00am 28.5 33.6 24.9 81 2.5 NE 7 13 4 7 1010.8 1010.5 13.2
18/07:30am 27.7 32.6 24.7 84 2.1 NE 7 11 4 6 1010.6 1010.3 13.2
18/07:00am 26.8 32.4 24.8 89 1.4 ENE 4 7 2 4 1010.4 1010.1 13.2
18/06:30am 26.4 32.7 24.8 91 1.1 CALM 0 0 0 0 1010.0 1009.7 13.2
18/06:00am 26.0 32.2 24.6 92 1.0 CALM 0 0 0 0 1009.7 1009.4 13.2
18/05:30am 26.1 32.4 24.7 92 1.0 CALM 0 0 0 0 1009.4 1009.1 13.2
18/05:00am 26.2 32.2 24.8 92 1.0 ENE 2 7 1 4 1009.1 1008.8 13.2
18/04:30am 26.3 32.8 25.1 93 0.8 CALM 0 0 0 0 1008.9 1008.6 13.2
18/04:00am 26.3 32.1 25.1 93 0.8 ENE 4 7 2 4 1008.6 1008.3 13.2
18/03:30am 26.4 32.9 25.0 92 1.0 CALM 0 0 0 0 1008.7 1008.4 13.2
18/03:00am 26.7 33.2 25.1 91 1.1 CALM 0 0 0 0 1008.7 1008.4 13.2
18/02:30am 26.8 33.4 25.2 91 1.1 CALM 0 0 0 0 1008.7 1008.4 13.2
18/02:00am 26.9 33.5 25.3 91 1.1 CALM 0 0 0 0 1008.7 1008.4 13.2
18/01:30am 26.9 33.7 25.5 92 1.0 CALM 0 0 0 0 1008.9 1008.6 13.2
18/01:00am 26.8 33.5 25.4 92 1.0 CALM 0 0 0 0 1009.1 1008.8 13.2
18/12:30am 26.8 33.5 25.4 92 1.0 CALM 0 0 0 0 1009.2 1008.9 13.2
18/12:00am 27.0 34.0 25.8 93 0.8 CALM 0 0 0 0 1009.2 1008.9 13.2
 
Date/Time
EST
Temp
°C
App
Temp
°C
Dew
Point
Rel
Hum
%
Delta-T
°C
Wind Press
QNH
hPa
Press
MSL
hPa
Rain
since 9 am
mm
Dir
 
Spd
km/h
Gust
km/h
Spd
kts
Gust
kts
17/11:30pm 26.9 33.7 25.5 92 1.0 CALM 0 0 0 0 1009.1 1008.8 13.2
17/11:00pm 26.8 33.4 25.2 91 1.1 CALM 0 0 0 0 1009.0 1008.7 13.2
17/10:30pm 26.8 33.5 25.4 92 1.0 CALM 0 0 0 0 1008.8 1008.5 13.2
17/10:00pm 27.0 33.8 25.6 92 1.0 CALM 0 0 0 0 1008.8 1008.5 13.2
17/09:30pm 26.9 33.8 25.7 93 0.8 CALM 0 0 0 0 1008.7 1008.4 13.2
17/09:00pm 26.9 33.8 25.7 93 0.8 CALM 0 0 0 0 1008.0 1007.7 13.2
17/08:30pm 26.8 33.6 25.6 93 0.8 CALM 0 0 0 0 1007.6 1007.3 13.2
17/08:00pm 26.9 33.8 25.7 93 0.8 CALM 0 0 0 0 1007.3 1007.0 13.2
17/07:30pm 27.2 34.2 25.8 92 1.0 CALM 0 0 0 0 1007.5 1007.2 13.2
17/07:00pm 27.2 34.0 25.6 91 1.1 CALM 0 0 0 0 1007.2 1006.9 13.2
17/06:30pm 26.8 33.1 24.8 89 1.4 CALM 0 2 0 1 1007.2 1006.9 13.2
17/06:00pm 26.6 31.4 24.4 88 1.5 NNW 7 13 4 7 1006.7 1006.4 11.4
17/05:42pm 27.2 30.1 23.2 79 2.7 NNE 13 32 7 17 1007.3 1007.0 4.0
17/05:30pm 32.5 35.5 23.4 58 6.3 WSW 13 20 7 11 1006.4 1006.1 0.0
17/05:00pm 33.3 35.9 23.3 55 7.0 W 15 28 8 15 1004.6 1004.3 0.0
17/04:30pm 33.7 36.5 23.7 56 7.0 WSW 15 22 8 12 1005.0 1004.7 0.0
17/04:00pm 33.8 36.9 23.5 55 7.2 NW 13 22 7 12 1004.9 1004.6 0.0
17/03:30pm 34.6 38.7 23.9 53 7.5 WNW 9 17 5 9 1005.2 1004.9 0.0
17/03:00pm 34.4 38.2 22.8 51 8.0 W 7 24 4 13 1005.8 1005.5 0.0
17/02:30pm 34.8 37.7 21.8 46 8.9 WNW 9 13 5 7 1006.4 1006.1 0.0
17/02:00pm 34.6 38.7 22.3 48 8.5 NE 4 7 2 4 1006.9 1006.6 0.0
17/01:30pm 34.2 37.4 21.3 47 8.7 NNE 6 13 3 7 1007.5 1007.2 0.0
17/01:00pm 33.6 38.7 22.7 53 7.5 CALM 0 7 0 4 1008.2 1007.9 0.0
17/12:30pm 32.5 36.1 22.3 55 7.0 NE 7 15 4 8 1008.5 1008.2 0.0
17/12:00pm 31.9 35.8 22.6 58 6.4 N 6 15 3 8 1009.0 1008.7 0.0
17/11:30am 31.6 35.3 22.3 57 6.3 NNW 6 9 3 5 1009.4 1009.1 0.0
17/11:00am 31.6 35.9 22.6 59 6.2 N 4 11 2 6 1009.7 1009.4 0.0
17/10:30am 30.7 35.2 23.6 66 4.9 NNW 6 9 3 5 1009.9 1009.6 0.0
17/10:00am 30.6 34.7 23.3 65 5.0 N 7 11 4 6 1009.7 1009.4 0.0
17/09:30am 29.8 34.1 23.3 68 4.5 NE 6 13 3 7 1009.9 1009.6 0.0
17/09:00am 29.1 33.2 24.0 74 3.5 N 9 13 5 7 1009.7 1009.4 11.4
17/08:30am 28.4 33.0 24.2 78 2.9 N 7 11 4 6 1009.7 1009.4 11.4
17/08:00am 27.8 32.1 24.2 81 2.5 NNE 9 13 5 7 1009.3 1009.0 11.4
17/07:30am 27.0 31.7 24.3 85 1.9 NNE 7 11 4 6 1009.2 1008.9 11.4
17/07:00am 26.1 32.0 24.1 89 1.4 CALM 0 0 0 0 1009.1 1008.8 11.4
17/06:30am 25.3 31.2 24.1 93 0.8 CALM 0 0 0 0 1009.0 1008.7 11.4
17/06:00am 24.9 30.7 23.9 94 0.7 CALM 0 0 0 0 1008.7 1008.4 11.4
17/05:30am 25.0 30.8 24.0 94 0.7 CALM 0 0 0 0 1008.1 1007.8 11.4
17/05:00am 25.0 30.8 24.0 94 0.7 CALM 0 0 0 0 1007.7 1007.4 11.4
17/04:30am 25.1 31.0 24.1 94 0.7 CALM 0 0 0 0 1007.2 1006.9 11.4
17/04:00am 25.0 30.7 23.8 93 0.8 CALM 0 6 0 3 1006.8 1006.5 11.4
17/03:30am 25.1 30.9 23.9 93 0.8 CALM 0 0 0 0 1006.6 1006.3 11.4
17/03:00am 25.2 31.2 24.2 94 0.7 CALM 0 0 0 0 1006.8 1006.5 11.4
17/02:30am 25.3 30.6 24.3 94 0.7 NE 4 7 2 4 1006.6 1006.3 11.4
17/02:00am 25.4 31.5 24.4 94 0.7 CALM 0 0 0 0 1006.8 1006.5 11.4
17/01:30am 25.5 31.5 24.3 93 0.8 CALM 0 0 0 0 1007.2 1006.9 11.2
17/01:00am 25.6 31.8 24.6 94 0.7 CALM 0 0 0 0 1007.7 1007.4 11.2
17/12:30am 25.6 31.3 24.4 93 0.8 SE 2 7 1 4 1007.9 1007.6 11.2
17/12:00am 25.7 30.7 24.5 93 0.8 S 6 13 3 7 1008.3 1008.0 11.2
 
Date/Time
EST
Temp
°C
App
Temp
°C
Dew
Point
Rel
Hum
%
Delta-T
°C
Wind Press
QNH
hPa
Press
MSL
hPa
Rain
since 9 am
mm
Dir
 
Spd
km/h
Gust
km/h
Spd
kts
Gust
kts
16/11:30pm 25.8 30.8 24.8 94 0.7 SE 7 9 4 5 1008.0 1007.7 11.2
16/11:00pm 25.8 32.0 24.6 93 0.8 CALM 0 0 0 0 1007.9 1007.6 11.2
16/10:30pm 25.8 32.0 24.6 93 0.8 CALM 0 0 0 0 1008.1 1007.8 11.2
16/10:00pm 26.0 31.2 24.8 93 0.8 S 6 9 3 5 1008.7 1008.4 11.2
16/09:30pm 25.8 32.0 24.6 93 0.8 CALM 0 0 0 0 1008.5 1008.2 11.2
16/09:00pm 25.7 31.8 24.5 93 0.8 CALM 0 0 0 0 1008.6 1008.3 11.2
16/08:30pm 25.6 30.8 24.2 92 1.0 ESE 4 9 2 5 1008.3 1008.0 11.2
16/08:00pm 25.6 31.6 24.2 92 1.0 CALM 0 0 0 0 1008.2 1007.9 11.2
16/07:30pm 25.5 30.0 23.9 91 1.1 ESE 7 11 4 6 1007.9 1007.6 11.0
16/07:00pm 25.7 31.7 24.3 92 1.0 CALM 0 6 0 3 1007.2 1006.9 11.0
16/06:30pm 25.2 29.8 23.8 92 1.0 NE 6 11 3 6 1007.3 1007.0 11.0
16/06:13pm 24.9 27.8 23.1 90 1.2 E 13 26 7 14 1007.5 1007.2 9.6
16/06:00pm 25.0 26.0 22.9 88 1.4 ESE 22 37 12 20 1007.4 1007.1 6.6
16/05:53pm 26.2 28.1 23.7 86 1.7 E 20 33 11 18 1007.5 1007.2 0.4
16/05:49pm 26.7 28.5 23.2 81 2.4 ENE 19 32 10 17 1007.6 1007.3 0.0
16/05:30pm 31.7 35.6 24.8 67 4.9 WNW 13 22 7 12 1006.6 1006.3 0.0
16/05:00pm 32.1 34.5 24.2 63 5.5 W 19 28 10 15 1005.6 1005.3 0.0
16/04:30pm 33.1 36.5 24.0 59 6.4 WNW 13 22 7 12 1005.5 1005.2 0.0
16/04:00pm 33.9 37.0 23.6 55 7.2 W 13 20 7 11 1005.1 1004.8 0.0
16/03:30pm 33.9 37.6 23.9 56 7.0 WNW 11 24 6 13 1005.5 1005.2 0.0
16/03:00pm 33.6 36.9 23.9 57 6.8 WNW 13 24 7 13 1005.9 1005.6 0.0
16/02:30pm 35.1 39.1 23.8 52 7.9 WSW 9 15 5 8 1006.2 1005.9 0.0
16/02:00pm 34.3 37.7 23.3 52 7.7 WNW 11 17 6 9 1006.4 1006.1 0.0
16/01:30pm 34.2 38.1 24.2 56 7.0 WNW 11 19 6 10 1007.3 1007.0 0.0
16/01:00pm 33.7 38.6 23.7 56 7.0 N 4 13 2 7 1007.9 1007.6 0.0
16/12:30pm 33.6 37.4 22.4 52 7.7 NW 6 13 3 7 1008.2 1007.9 0.0
16/12:00pm 33.3 36.9 22.4 52 7.5 SE 7 11 4 6 1008.5 1008.2 0.0
16/11:30am 32.9 37.1 22.4 54 7.2 N 4 9 2 5 1008.8 1008.5 0.0
16/11:00am 32.9 37.7 24.1 60 6.2 E 6 13 3 7 1009.2 1008.9 0.0
16/10:30am 32.0 37.4 23.8 62 5.7 NNE 2 11 1 6 1009.8 1009.5 0.0
16/10:00am 30.7 36.1 23.9 67 4.7 ENE 2 6 1 3 1010.1 1009.8 0.0
16/09:30am 30.4 36.4 24.8 72 3.9 N 2 7 1 4 1010.3 1010.0 0.0
16/09:00am 29.4 35.7 24.7 76 3.3 CALM 0 9 0 5 1010.5 1010.2 0.4
16/08:30am 28.4 33.9 24.0 77 3.0 NE 2 7 1 4 1010.4 1010.1 0.4
16/08:00am 27.9 33.6 23.7 78 2.9 CALM 0 6 0 3 1010.4 1010.1 0.4

Other Formats:

Comma delimited format used in spreadsheet applications
http://www.bom.gov.au/fwo/IDQ60801/IDQ60801.94171.axf

JavaScript Object Notation format (JSON) in row-major order
http://www.bom.gov.au/fwo/IDQ60801/IDQ60801.94171.json